createdAt,value
2018-01-05T00:00:34.702Z,37.23
2018-01-05T00:03:02.496Z,36.67
2018-01-05T00:05:30.099Z,96.37
2018-01-05T00:07:57.831Z,23.60
2018-01-05T00:10:25.462Z,31.50
2018-01-05T00:12:53.226Z,31.57
2018-01-05T00:15:20.886Z,30.83
2018-01-05T00:17:48.704Z,26.70
2018-01-05T00:20:16.268Z,35.30
2018-01-05T00:22:44.040Z,27.33
2018-01-05T00:25:11.750Z,26.37
2018-01-05T00:27:39.313Z,33.50
2018-01-05T00:30:06.934Z,32.73
2018-01-05T00:32:34.812Z,50.10
2018-01-05T00:35:02.382Z,64.93
2018-01-05T00:37:29.941Z,33.13
2018-01-05T00:39:57.551Z,46.73
2018-01-05T00:42:25.284Z,30.20
2018-01-05T00:44:52.850Z,39.10
2018-01-05T00:47:20.461Z,32.73
2018-01-05T00:49:48.241Z,28.03
2018-01-05T00:52:15.936Z,28.93
2018-01-05T00:54:43.535Z,28.20
2018-01-05T00:57:11.096Z,27.57
2018-01-05T00:59:38.658Z,30.17
2018-01-05T01:02:06.601Z,24.00
2018-01-05T01:04:34.317Z,24.70
2018-01-05T01:07:01.910Z,30.10
2018-01-05T01:09:29.515Z,31.67
2018-01-05T01:11:57.302Z,21.93
2018-01-05T01:14:25.119Z,22.47
2018-01-05T01:16:52.872Z,21.03
2018-01-05T01:19:20.452Z,24.40
2018-01-05T01:21:48.176Z,34.67
2018-01-05T01:24:15.892Z,25.30
2018-01-05T01:26:43.455Z,24.57
2018-01-05T01:29:11.228Z,22.07
2018-01-05T01:31:38.853Z,22.30
2018-01-05T01:34:06.666Z,23.67
2018-01-05T01:36:34.483Z,23.47
2018-01-05T01:39:02.110Z,24.87
2018-01-05T01:41:29.675Z,22.20
2018-01-05T01:43:57.242Z,24.83
2018-01-05T01:46:24.926Z,51.30
2018-01-05T01:48:52.482Z,50.40
2018-01-05T01:51:20.046Z,36.97
2018-01-05T01:53:47.900Z,32.10
2018-01-05T01:56:15.474Z,24.13
2018-01-05T01:58:43.038Z,21.37
2018-01-05T02:01:10.968Z,23.10
2018-01-05T02:03:38.537Z,22.87
2018-01-05T02:06:06.270Z,27.03
2018-01-05T02:08:33.894Z,21.93
2018-01-05T02:11:01.635Z,19.37
2018-01-05T02:13:29.190Z,21.20
2018-01-05T02:15:56.807Z,19.93
2018-01-05T02:18:24.376Z,21.63
2018-01-05T02:20:51.942Z,21.70
2018-01-05T02:23:19.674Z,23.43
2018-01-05T02:25:47.444Z,23.47
2018-01-05T02:28:15.011Z,21.37
2018-01-05T02:30:42.656Z,21.37
2018-01-05T02:33:10.373Z,22.03
2018-01-05T02:35:38.089Z,24.73
2018-01-05T02:38:05.935Z,21.17
2018-01-05T02:40:33.499Z,22.10
2018-01-05T02:43:01.238Z,21.97
2018-01-05T02:45:28.845Z,21.50
2018-01-05T02:47:56.570Z,20.87
2018-01-05T02:50:24.110Z,20.80
2018-01-05T02:52:51.943Z,15.40
2018-01-05T02:55:19.552Z,20.17
2018-01-05T02:57:47.130Z,21.70
2018-01-05T03:00:14.846Z,19.53
2018-01-05T03:02:42.406Z,21.47
2018-01-05T03:05:10.131Z,21.13
2018-01-05T03:07:37.846Z,21.23
2018-01-05T03:10:05.410Z,22.27
2018-01-05T03:12:33.010Z,21.93
2018-01-05T03:15:00.773Z,22.43
2018-01-05T03:17:28.339Z,21.80
2018-01-05T03:19:55.904Z,20.90
2018-01-05T03:22:23.758Z,19.47
2018-01-05T03:24:51.318Z,19.17
2018-01-05T03:27:19.094Z,18.90
2018-01-05T03:29:47.013Z,15.30
2018-01-05T03:32:14.574Z,20.70
2018-01-05T03:34:42.349Z,18.93
2018-01-05T03:37:10.116Z,15.33
2018-01-05T03:39:37.680Z,19.40
2018-01-05T03:42:05.245Z,21.47
2018-01-05T03:44:32.858Z,22.10
2018-01-05T03:47:00.640Z,20.77
2018-01-05T03:49:28.206Z,22.40
2018-01-05T03:51:55.921Z,25.37
2018-01-05T03:54:23.585Z,25.07
2018-01-05T03:56:51.220Z,25.47
2018-01-05T03:59:18.825Z,20.90
2018-01-05T04:01:46.547Z,22.63
2018-01-05T04:04:15.169Z,22.67
2018-01-05T04:06:42.856Z,100.37
2018-01-05T04:09:10.414Z,41.83
2018-01-05T04:11:38.223Z,23.03
2018-01-05T04:14:06.056Z,23.93
2018-01-05T04:16:33.625Z,21.67
2018-01-05T04:19:01.379Z,20.77
2018-01-05T04:21:29.004Z,35.03
2018-01-05T04:23:56.814Z,31.00
2018-01-05T04:26:24.533Z,28.30
2018-01-05T04:28:52.351Z,27.67
2018-01-05T04:31:20.169Z,30.77
2018-01-05T04:33:47.745Z,31.60
2018-01-05T04:36:15.372Z,33.83
2018-01-05T04:38:43.097Z,36.73
2018-01-05T04:41:10.658Z,36.80
2018-01-05T04:43:38.452Z,40.70
2018-01-05T04:46:06.022Z,40.57
2018-01-05T04:48:33.795Z,38.60
2018-01-05T04:51:01.413Z,40.10
2018-01-05T04:53:28.985Z,47.53
2018-01-05T04:55:56.548Z,50.27
2018-01-05T04:58:24.249Z,40.47
2018-01-05T05:00:51.827Z,32.93
2018-01-05T05:03:19.387Z,34.13
2018-01-05T05:05:47.070Z,37.87
2018-01-05T05:08:14.838Z,41.60
2018-01-05T05:10:42.557Z,37.17
2018-01-05T05:13:10.172Z,37.70
2018-01-05T05:15:37.774Z,34.80
2018-01-05T05:18:05.330Z,33.73
2018-01-05T05:20:33.129Z,34.70
2018-01-05T05:23:00.694Z,41.37
2018-01-05T05:25:28.565Z,80.07
2018-01-05T05:27:56.385Z,53.50
2018-01-05T05:30:24.103Z,33.80
2018-01-05T05:32:51.662Z,29.73
2018-01-05T05:35:19.270Z,33.37
2018-01-05T05:37:46.846Z,36.30
2018-01-05T05:40:14.464Z,35.47
2018-01-05T05:42:42.062Z,30.97
2018-01-05T05:45:09.701Z,27.80
2018-01-05T05:47:37.261Z,26.00
2018-01-05T05:50:05.272Z,19.13
2018-01-05T05:52:32.847Z,22.23
2018-01-05T05:55:00.433Z,22.17
2018-01-05T05:57:28.201Z,21.53
2018-01-05T05:59:55.757Z,19.23
2018-01-05T06:02:23.318Z,17.33
2018-01-05T06:04:50.943Z,66.93
2018-01-05T06:07:18.651Z,58.50
2018-01-05T06:09:46.214Z,47.13
2018-01-05T06:12:14.108Z,47.17
2018-01-05T06:14:41.716Z,45.37
2018-01-05T06:17:09.346Z,45.33
2018-01-05T06:19:36.961Z,47.43
2018-01-05T06:22:04.534Z,52.37
2018-01-05T06:24:32.180Z,47.43
2018-01-05T06:26:59.794Z,45.77
2018-01-05T06:29:27.534Z,47.40
2018-01-05T06:31:55.120Z,46.07
2018-01-05T06:34:22.741Z,47.57
2018-01-05T06:36:50.487Z,42.10
2018-01-05T06:39:18.046Z,40.67
2018-01-05T06:41:46.003Z,35.63
2018-01-05T06:44:13.658Z,39.93
2018-01-05T06:46:41.250Z,42.20
2018-01-05T06:49:08.948Z,61.10
2018-01-05T06:51:36.696Z,48.80
2018-01-05T06:54:04.268Z,43.73
2018-01-05T06:56:31.882Z,41.03
2018-01-05T06:58:59.446Z,43.60
2018-01-05T07:01:27.168Z,44.87
2018-01-05T07:03:54.762Z,38.27
2018-01-05T07:06:22.322Z,40.97
2018-01-05T07:08:50.122Z,40.53
2018-01-05T07:11:17.940Z,42.23
2018-01-05T07:13:45.502Z,38.43
2018-01-05T07:16:13.076Z,37.40
2018-01-05T07:18:40.689Z,36.47
2018-01-05T07:21:08.245Z,38.83
2018-01-05T07:23:35.806Z,39.10
2018-01-05T07:26:03.422Z,40.23
2018-01-05T07:28:31.000Z,36.73
2018-01-05T07:30:58.578Z,32.20
2018-01-05T07:33:26.401Z,31.27
2018-01-05T07:35:53.962Z,31.33
2018-01-05T07:38:21.623Z,35.00
2018-01-05T07:40:49.455Z,38.97
2018-01-05T07:43:17.274Z,42.87
2018-01-05T07:45:45.092Z,47.03
2018-01-05T07:48:12.718Z,39.90
2018-01-05T07:50:40.529Z,30.17
2018-01-05T07:53:08.090Z,34.20
2018-01-05T07:55:35.941Z,43.70
2018-01-05T07:58:03.656Z,35.87
2018-01-05T08:00:31.300Z,39.13
2018-01-05T08:02:58.910Z,29.87
2018-01-05T08:05:26.478Z,21.73
2018-01-05T08:07:54.042Z,26.63
2018-01-05T08:10:21.659Z,19.33
2018-01-05T08:12:49.392Z,17.10
2018-01-05T08:15:17.001Z,17.07
2018-01-05T08:17:44.634Z,20.60
2018-01-05T08:20:12.345Z,20.13
2018-01-05T08:22:39.914Z,16.30
2018-01-05T08:25:07.781Z,13.50
2018-01-05T08:27:35.391Z,14.60
2018-01-05T08:30:03.217Z,14.13
2018-01-05T08:32:30.859Z,21.37
2018-01-05T08:34:58.509Z,25.80
2018-01-05T08:37:26.054Z,26.30
2018-01-05T08:39:53.990Z,15.17
2018-01-05T08:42:21.562Z,31.00
2018-01-05T08:44:49.119Z,8.37
2018-01-05T08:47:16.888Z,3.83
2018-01-05T08:49:44.628Z,3.77
2018-01-05T08:52:12.191Z,4.33
2018-01-05T08:54:39.822Z,4.40
2018-01-05T08:57:07.385Z,5.33
2018-01-05T08:59:34.943Z,9.00
2018-01-05T09:02:02.713Z,7.40
2018-01-05T09:04:30.278Z,7.80
2018-01-05T09:06:57.887Z,18.37
2018-01-05T09:09:25.711Z,11.03
2018-01-05T09:11:53.295Z,9.47
2018-01-05T09:14:20.862Z,16.40
2018-01-05T09:16:48.481Z,12.10
2018-01-05T09:19:16.065Z,8.73
2018-01-05T09:21:43.896Z,16.47
2018-01-05T09:24:11.525Z,8.53
2018-01-05T09:26:39.224Z,14.70
2018-01-05T09:29:06.788Z,17.97
2018-01-05T09:31:34.458Z,14.17
2018-01-05T09:34:02.026Z,16.77
2018-01-05T09:36:29.575Z,16.43
2018-01-05T09:38:57.202Z,14.70
2018-01-05T09:41:24.756Z,16.10
2018-01-05T09:43:52.362Z,15.40
2018-01-05T09:46:20.038Z,19.17
2018-01-05T09:48:47.754Z,13.40
2018-01-05T09:51:15.472Z,8.73
2018-01-05T09:53:43.102Z,13.50
2018-01-05T09:56:10.674Z,15.67
2018-01-05T09:58:38.247Z,13.83
2018-01-05T10:01:06.083Z,12.60
2018-01-05T10:03:33.692Z,13.23
2018-01-05T10:06:01.420Z,12.37
2018-01-05T10:08:29.039Z,10.73
2018-01-05T10:10:56.626Z,12.60
2018-01-05T10:13:24.346Z,13.43
2018-01-05T10:15:52.183Z,13.60
2018-01-05T10:18:19.778Z,13.87
2018-01-05T10:20:47.358Z,14.67
2018-01-05T10:23:14.986Z,10.17
2018-01-05T10:25:42.614Z,11.80
2018-01-05T10:28:10.273Z,10.00
2018-01-05T10:30:37.921Z,10.10
2018-01-05T10:33:05.517Z,11.17
2018-01-05T10:35:33.063Z,6.87
2018-01-05T10:38:00.744Z,5.77
2018-01-05T10:40:28.377Z,11.00
2018-01-05T10:42:55.939Z,7.17
2018-01-05T10:45:23.623Z,7.60
2018-01-05T10:47:51.276Z,7.00
2018-01-05T10:50:18.827Z,7.83
2018-01-05T10:52:46.444Z,8.47
2018-01-05T10:55:14.157Z,5.90
2018-01-05T10:57:41.872Z,6.80
2018-01-05T11:00:09.477Z,5.33
2018-01-05T11:02:37.038Z,5.43
2018-01-05T11:05:04.594Z,5.40
2018-01-05T11:07:32.372Z,5.37
2018-01-05T11:10:00.091Z,3.87
2018-01-05T11:12:27.905Z,4.00
2018-01-05T11:14:55.522Z,4.03
2018-01-05T11:17:23.077Z,8.17
2018-01-05T11:19:50.638Z,6.37
2018-01-05T11:22:18.248Z,4.03
2018-01-05T11:24:45.812Z,4.23
2018-01-05T11:27:13.405Z,4.77
2018-01-05T11:29:41.233Z,17.67
2018-01-05T11:32:08.798Z,6.07
2018-01-05T11:34:36.358Z,6.53
2018-01-05T11:37:04.026Z,9.33
2018-01-05T11:39:31.779Z,4.03
2018-01-05T11:41:59.497Z,5.07
2018-01-05T11:44:27.440Z,10.20
2018-01-05T11:46:55.258Z,6.33
2018-01-05T11:49:22.947Z,6.47
2018-01-05T11:51:50.564Z,5.57
2018-01-05T11:54:18.123Z,5.93
2018-01-05T11:56:45.930Z,5.53
2018-01-05T11:59:13.753Z,5.10
2018-01-05T12:01:41.567Z,5.57
2018-01-05T12:04:09.178Z,9.50
2018-01-05T12:06:37.200Z,6.70
2018-01-05T12:09:04.848Z,8.50
2018-01-05T12:11:32.701Z,7.40
2018-01-05T12:14:00.446Z,8.67
2018-01-05T12:16:28.009Z,9.87
2018-01-05T12:18:55.614Z,9.37
2018-01-05T12:21:23.318Z,7.97
2018-01-05T12:23:51.023Z,10.77
2018-01-05T12:26:18.579Z,7.70
2018-01-05T12:28:46.367Z,8.10
2018-01-05T12:31:14.286Z,8.70
2018-01-05T12:33:41.856Z,8.37
2018-01-05T12:36:09.576Z,7.60
2018-01-05T12:38:37.240Z,7.10
2018-01-05T12:41:04.803Z,7.23
2018-01-05T12:43:32.677Z,6.90
2018-01-05T12:46:00.286Z,5.70
2018-01-05T12:48:27.868Z,5.80
2018-01-05T12:50:55.521Z,6.60
2018-01-05T12:53:23.249Z,10.03
2018-01-05T12:55:51.067Z,11.60
2018-01-05T12:58:19.086Z,20.00
2018-01-05T13:00:46.905Z,20.13
2018-01-05T13:03:14.513Z,15.70
2018-01-05T13:05:42.342Z,10.13
2018-01-05T13:08:09.909Z,8.40
2018-01-05T13:10:37.468Z,18.50
2018-01-05T13:13:05.139Z,13.83
2018-01-05T13:15:32.914Z,17.07
2018-01-05T13:18:00.732Z,20.33
2018-01-05T13:20:28.351Z,15.23
2018-01-05T13:22:56.126Z,9.47
2018-01-05T13:25:23.776Z,12.93
2018-01-05T13:27:51.708Z,9.40
2018-01-05T13:30:19.316Z,26.03
2018-01-05T13:32:46.895Z,14.00
2018-01-05T13:35:14.491Z,29.90
2018-01-05T13:37:42.070Z,33.30
2018-01-05T13:40:09.726Z,28.97
2018-01-05T13:42:37.291Z,27.87
2018-01-05T13:45:04.883Z,71.77
2018-01-05T13:47:32.649Z,60.40
2018-01-05T13:50:00.261Z,50.47
2018-01-05T13:52:28.084Z,387.30
2018-01-05T13:54:55.673Z,139.17
2018-01-05T13:57:23.246Z,85.30
2018-01-05T13:59:50.832Z,71.13
2018-01-05T14:02:18.556Z,52.37
2018-01-05T14:04:46.188Z,41.73
2018-01-05T14:07:13.986Z,25.57
2018-01-05T14:09:41.558Z,21.23
2018-01-05T14:12:09.329Z,44.77
2018-01-05T14:14:37.068Z,44.30
2018-01-05T14:17:04.724Z,79.73
2018-01-05T14:19:32.487Z,42.17
2018-01-05T14:22:00.301Z,36.63
2018-01-05T14:24:27.974Z,40.47
2018-01-05T14:26:55.559Z,106.53
2018-01-05T14:29:23.318Z,71.53
2018-01-05T14:31:51.040Z,154.63
2018-01-05T14:34:18.756Z,74.10
2018-01-05T14:36:46.482Z,64.00
2018-01-05T14:39:14.050Z,44.20
2018-01-05T14:41:41.695Z,112.13
2018-01-05T14:44:09.289Z,159.90
2018-01-05T14:46:37.084Z,204.50
2018-01-05T14:49:04.902Z,78.00
2018-01-05T14:51:32.512Z,81.90
2018-01-05T14:54:00.134Z,100.30
2018-01-05T14:56:27.747Z,56.13
2018-01-05T14:58:55.314Z,59.77
2018-01-05T15:01:23.091Z,66.07
2018-01-05T15:03:51.125Z,87.27
2018-01-05T15:06:18.810Z,81.97
2018-01-05T15:08:46.386Z,92.60
2018-01-05T15:11:13.964Z,93.10
2018-01-05T15:13:41.575Z,65.27
2018-01-05T15:16:09.150Z,28.00
2018-01-05T15:18:36.979Z,153.63
2018-01-05T15:21:04.560Z,58.30
2018-01-05T15:23:32.140Z,42.57
2018-01-05T15:25:59.748Z,38.40
2018-01-05T15:28:27.320Z,47.40
2018-01-05T15:30:54.955Z,57.43
2018-01-05T15:33:22.727Z,72.80
2018-01-05T15:35:50.306Z,123.97
2018-01-05T15:38:17.899Z,182.47
2018-01-05T15:40:45.466Z,143.47
2018-01-05T15:43:13.173Z,150.67
2018-01-05T15:45:40.807Z,186.47
2018-01-05T15:48:08.382Z,285.53
2018-01-05T15:50:35.983Z,226.07
2018-01-05T15:53:03.661Z,233.53
2018-01-05T15:55:31.298Z,170.00
2018-01-05T15:57:59.006Z,122.57
2018-01-05T16:00:26.578Z,137.60
2018-01-05T16:02:54.202Z,123.03
2018-01-05T16:05:21.774Z,133.60
2018-01-05T16:07:49.406Z,139.90
2018-01-05T16:10:17.000Z,311.53
2018-01-05T16:12:44.714Z,192.63
2018-01-05T16:15:12.424Z,175.97
2018-01-05T16:17:40.045Z,183.80
2018-01-05T16:20:07.722Z,147.20
2018-01-05T16:22:35.488Z,182.17
2018-01-05T16:25:03.079Z,214.70
2018-01-05T16:27:30.682Z,187.03
2018-01-05T16:29:58.430Z,187.10
2018-01-05T16:32:26.150Z,199.33
2018-01-05T16:40:01.955Z,215.03
2018-01-05T16:42:29.626Z,100.60
2018-01-05T16:44:57.275Z,118.90
2018-01-05T16:47:24.859Z,109.60
2018-01-05T16:49:52.486Z,111.80
2018-01-05T16:52:20.054Z,120.97
2018-01-05T16:54:47.865Z,126.37
2018-01-05T16:57:15.508Z,137.73
2018-01-05T16:59:43.075Z,140.83
2018-01-05T17:02:10.638Z,163.43
2018-01-05T17:04:38.387Z,168.80
2018-01-05T17:07:05.971Z,155.60
2018-01-05T17:09:33.532Z,133.83
2018-01-05T17:12:01.180Z,161.07
2018-01-05T17:14:28.750Z,288.50
2018-01-05T17:16:56.492Z,296.00
2018-01-05T17:19:24.190Z,208.10
2018-01-05T17:21:51.778Z,147.03
2018-01-05T17:24:19.374Z,140.80
2018-01-05T17:26:47.151Z,211.47
2018-01-05T17:29:14.727Z,201.67
2018-01-05T17:31:42.534Z,180.07
2018-01-05T17:34:10.355Z,143.00
2018-01-05T17:36:37.938Z,140.13
2018-01-05T17:39:05.542Z,135.83
2018-01-05T17:41:33.407Z,145.23
2018-01-05T17:44:00.971Z,225.67
2018-01-05T17:46:28.743Z,272.70
2018-01-05T17:48:56.408Z,272.57
2018-01-05T17:51:23.988Z,272.57
2018-01-05T17:53:51.563Z,435.07
2018-01-05T17:56:19.201Z,369.83
2018-01-05T17:58:47.022Z,294.67
2018-01-05T18:01:14.611Z,254.90
2018-01-05T18:03:42.429Z,229.27
2018-01-05T18:06:09.991Z,239.70
2018-01-05T18:08:37.807Z,266.90
2018-01-05T18:11:05.587Z,265.83
2018-01-05T18:13:33.162Z,220.00
2018-01-05T18:16:00.751Z,170.03
2018-01-05T18:18:28.583Z,174.77
2018-01-05T18:20:56.178Z,146.30
2018-01-05T18:23:23.735Z,140.43
2018-01-05T18:25:51.362Z,132.27
2018-01-05T18:28:18.950Z,144.00
2018-01-05T18:30:46.554Z,128.83
2018-01-05T18:33:14.202Z,134.30
2018-01-05T18:35:41.781Z,138.20
2018-01-05T18:38:09.346Z,233.10
2018-01-05T18:40:37.340Z,243.90
2018-01-05T18:43:05.159Z,224.03
2018-01-05T18:45:32.890Z,350.07
2018-01-05T18:48:00.514Z,187.70
2018-01-05T18:50:28.091Z,150.90
2018-01-05T18:52:55.723Z,140.10
2018-01-05T18:55:23.350Z,81.00
2018-01-05T18:57:50.914Z,114.23
2018-01-05T19:00:18.657Z,109.50
2018-01-05T19:02:46.431Z,113.77
2018-01-05T19:05:14.006Z,141.60
2018-01-05T19:07:41.619Z,219.43
2018-01-05T19:10:09.299Z,199.87
2018-01-05T19:12:36.870Z,225.43
2018-01-05T19:15:04.693Z,220.97
2018-01-05T19:17:32.473Z,136.80
2018-01-05T19:20:00.061Z,177.37
2018-01-05T19:22:27.850Z,97.63
2018-01-05T19:24:55.669Z,76.00
2018-01-05T19:27:23.386Z,114.90
2018-01-05T19:29:50.962Z,135.27
2018-01-05T19:32:18.709Z,141.10
2018-01-05T19:34:46.539Z,144.97
2018-01-05T19:37:14.119Z,165.63
2018-01-05T19:39:41.757Z,174.43
2018-01-05T19:42:09.585Z,171.23
2018-01-05T19:44:37.163Z,179.93
2018-01-05T19:47:05.033Z,183.00
2018-01-05T19:49:32.604Z,201.30
2018-01-05T19:52:00.170Z,175.80
2018-01-05T19:54:27.987Z,142.73
2018-01-05T19:56:55.563Z,197.73
2018-01-05T19:59:23.138Z,119.43
2018-01-05T20:01:50.892Z,98.47
2018-01-05T20:04:18.660Z,108.03
2018-01-05T20:06:46.475Z,94.73
2018-01-05T20:09:14.296Z,87.00
2018-01-05T20:11:41.870Z,60.27
2018-01-05T20:14:09.436Z,52.00
2018-01-05T20:16:37.032Z,55.43
2018-01-05T20:19:04.602Z,79.90
2018-01-05T20:21:32.168Z,93.07
2018-01-05T20:24:00.005Z,76.17
2018-01-05T20:26:27.590Z,86.27
2018-01-05T20:28:55.322Z,84.97
2018-01-05T20:31:22.950Z,88.40
2018-01-05T20:33:50.546Z,85.40
2018-01-05T20:36:18.120Z,74.80
2018-01-05T20:38:45.910Z,75.60
2018-01-05T20:41:13.473Z,67.30
2018-01-05T20:43:41.248Z,65.77
2018-01-05T20:46:08.874Z,76.33
2018-01-05T20:48:36.478Z,125.80
2018-01-05T20:51:04.063Z,130.50
2018-01-05T20:53:31.776Z,119.20
2018-01-05T20:55:59.504Z,97.20
2018-01-05T20:58:27.220Z,94.10
2018-01-05T21:00:54.944Z,101.23
2018-01-05T21:03:22.514Z,101.23
2018-01-05T21:05:50.309Z,107.47
2018-01-05T21:08:17.946Z,123.03
2018-01-05T21:10:45.526Z,114.83
2018-01-05T21:13:13.095Z,105.73
2018-01-05T21:15:40.771Z,98.30
2018-01-05T21:18:08.337Z,110.60
2018-01-05T21:20:35.906Z,115.30
2018-01-05T21:23:03.591Z,115.83
2018-01-05T21:25:31.162Z,212.83
2018-01-05T21:27:58.745Z,86.00
2018-01-05T21:30:26.588Z,109.97
2018-01-05T21:32:54.433Z,258.47
2018-01-05T21:35:22.224Z,246.20
2018-01-05T21:37:49.842Z,96.90
2018-01-05T21:40:17.403Z,98.00
2018-01-05T21:42:44.968Z,84.63
2018-01-05T21:45:12.800Z,51.83
2018-01-05T21:47:40.380Z,58.97
2018-01-05T21:50:07.949Z,80.97
2018-01-05T21:52:35.578Z,78.63
2018-01-05T21:55:03.368Z,89.93
2018-01-05T21:57:30.948Z,105.27
2018-01-05T21:59:58.585Z,135.37
2018-01-05T22:02:26.164Z,84.33
2018-01-05T22:04:53.734Z,75.17
2018-01-05T22:07:21.370Z,109.97
2018-01-05T22:09:49.090Z,91.50
2018-01-05T22:12:16.806Z,94.40
2018-01-05T22:14:44.421Z,60.83
2018-01-05T22:17:11.995Z,93.77
2018-01-05T22:19:39.562Z,173.20
2018-01-05T22:22:07.466Z,595.33
2018-01-05T22:24:35.186Z,245.60
2018-01-05T22:27:02.750Z,64.13
2018-01-05T22:29:30.374Z,141.50
2018-01-05T22:31:58.113Z,48.63
2018-01-05T22:34:25.659Z,48.73
2018-01-05T22:36:53.313Z,51.80
2018-01-05T22:39:20.869Z,60.57
2018-01-05T22:41:48.438Z,54.93
2018-01-05T22:44:16.070Z,44.80
2018-01-05T22:46:43.846Z,44.50
2018-01-05T22:49:11.434Z,45.97
2018-01-05T22:51:39.282Z,42.20
2018-01-05T22:54:06.850Z,44.20
2018-01-05T22:56:34.527Z,41.07
2018-01-05T22:59:02.161Z,62.17
2018-01-05T23:01:29.745Z,63.97
2018-01-05T23:03:57.572Z,48.70
2018-01-05T23:06:25.389Z,44.20
2018-01-05T23:08:52.970Z,45.03
2018-01-05T23:11:20.529Z,44.80
2018-01-05T23:13:48.160Z,43.10
2018-01-05T23:16:15.722Z,40.20
2018-01-05T23:18:43.477Z,94.03
2018-01-05T23:21:11.299Z,40.93
2018-01-05T23:23:39.022Z,45.50
2018-01-05T23:26:06.594Z,46.47
2018-01-05T23:28:34.302Z,96.70
2018-01-05T23:31:02.028Z,58.07
2018-01-05T23:33:29.600Z,62.53
2018-01-05T23:35:57.239Z,61.63
2018-01-05T23:38:24.783Z,67.37
2018-01-05T23:40:52.518Z,56.77
2018-01-05T23:43:20.137Z,52.53
2018-01-05T23:45:47.851Z,137.93
2018-01-05T23:48:15.426Z,177.57
2018-01-05T23:50:43.105Z,159.73
2018-01-05T23:53:10.680Z,62.87
2018-01-05T23:55:38.251Z,74.97
2018-01-05T23:58:05.960Z,85.43
